Terminal Aerodrome Forecast
Issued by NWS Wakefield, VA

Home | Current Version | Previous Version | Text Only | Print | Product List | Glossary On
Versions: 1 2 3 4 5 6 7 8 9 10 11 12 13 14 15 16 17 18 19 20
569
FTUS41 KAKQ 211004 AAA
TAFECG
TAF AMD
KECG 211004Z 2110/2206 VRB04KT 1SM BR OVC003
      TEMPO 2110/2114 1/2SM FG OVC002
     FM211500 11004KT 1SM BR OVC007
     FM211700 13004KT P6SM BKN015=

USA.gov is the U.S. government's official web portal to all federal, state and local government web resources and services.